Unalaska, AK

11:29 AM AKDT on September 03, 2015 (GMT -0800)
Dutch Harbor | | Change Station
CLOSE
Current Station
Airport
Location: Dutch Harbor,
Elevation: 13 ft
Nearby Weather Stations

Elev 13 ft 53.90 °N, 166.54 °W | Updated 10 minutes ago

Mostly Cloudy
Mostly Cloudy
55 °F
Feels Like 55 °F
N
4
Wind Variable Wind from WNW

Today
High -- | Low -- °F
--% Chance of Precip.
Yesterday
High -- | Low -- °F
Precip. -- in
8:18 AM 9:52 PM
Waning Gibbous, 67% visible
Pressure 29.88 in
Visibility 10.0 miles
Clouds Few 800 ft
Scattered Clouds 2100 ft
Mostly Cloudy 4000 ft
Dew Point 48 °F
Humidity 77%
Rainfall 0.01 in
Snow Depth Not available.
UV 1 out of 12
Pollen Not available.
Air Quality Not available.
Flu Activity Not available.
SPECI PADU 031919Z 30003KT 10SM FEW008 SCT021 BKN040 13/09 A2988 RMK AO2 STRATUS W-NW CS
Pressure 29.88 in
Visibility 10.0 miles
Clouds Few 800 ft
Scattered Clouds 2100 ft
Mostly Cloudy 4000 ft
Dew Point 48 °F
Humidity 77%
Rainfall 0.01 in
Snow Depth Not available.
UV 1 out of 12
Pollen Not available.
Air Quality Not available.
Flu Activity Not available.
SPECI PADU 031919Z 30003KT 10SM FEW008 SCT021 BKN040 13/09 A2988 RMK AO2 STRATUS W-NW CS

10-Day Weather Forecast

×

Almanac

Astronomy

Sep. 03, 2015 Rise Set
Actual Time
Civil Twilight
Nautical Twilight
Astronomical Twilight
Moon
Length of Visible Light
Length of Day
Tomorrow will be .
, % of the Moon is Illuminated

Today's Extremes

State Highs State Lows

Community

WunderPhotos

Upload Photos

1,852,014 photos uploaded!

WunderBlogs® & News

Nearby

Air Quality

  Air Quality AQ Index Pollutant
Not available.

Snow Depth

Station Depth Elevation

Earthquake Activity

City Distance Mag. Time & Date
Minimum magnitude displayed is 2.5.

Coastal Water Temperatures

Place Temperature

Stations

Nearby Weather Stations

Station Location Temp. Windchill Dew Point Humidity Wind Precip. Elev Updated Type